Time;durP1;ratioP1;P1;durP2;ratioP2;P2;SDS_P1;SDS_P2;PMS_P1;PMS_P2;Temp;Humidity;BMP_temperature;BMP_pressure;BME280_temperature;BME280_humidity;BME280_pressure;Samples;Min_cycle;Max_cycle;Signal;HPM_P1;HPM_P2
2023/03/22 00:01:42;;;;;;;13.63;4.55;;;;;;;;;;4961422;28;20715;-63
2023/03/22 00:04:08;;;;;;;9.95;4.18;;;;;;;;;;4956620;28;20265;-63
2023/03/22 00:06:33;;;;;;;8.30;3.80;;;;;;;;;;4958526;28;20583;-63
2023/03/22 00:08:58;;;;;;;10.88;4.07;;;;;;;;;;4975354;28;20216;-63
2023/03/22 00:11:24;;;;;;;10.75;3.97;;;;;;;;;;4970180;28;20210;-63
2023/03/22 00:13:51;;;;;;;10.00;3.70;;;;;;;;;;4975650;28;20237;-63
2023/03/22 00:16:17;;;;;;;10.82;4.10;;;;;;;;;;4957247;28;20220;-63
2023/03/22 00:18:42;;;;;;;8.80;3.60;;;;;;;;;;4976046;28;20217;-63
2023/03/22 00:21:10;;;;;;;9.63;3.15;;;;;;;;;;4975542;28;20217;-63
2023/03/22 00:23:35;;;;;;;9.27;3.33;;;;;;;;;;4975160;28;20217;-63
2023/03/22 00:26:00;;;;;;;9.23;3.60;;;;;;;;;;4973618;28;20304;-63
2023/03/22 00:28:26;;;;;;;11.65;3.25;;;;;;;;;;4956254;29;20222;-63
2023/03/22 00:30:52;;;;;;;11.10;3.20;;;;;;;;;;4968299;28;20234;-63
2023/03/22 00:33:17;;;;;;;7.93;3.08;;;;;;;;;;4974997;28;20293;-63
2023/03/22 00:35:49;;;;;;;11.15;3.17;;;;;;;;;;4975861;28;20298;-63
2023/03/22 00:38:14;;;;;;;8.13;3.10;;;;;;;;;;4956286;28;20269;-63
2023/03/22 00:40:40;;;;;;;11.45;3.47;;;;;;;;;;4956404;29;20222;-63
2023/03/22 00:43:06;;;;;;;11.05;3.50;;;;;;;;;;4955345;29;20645;-63
2023/03/22 00:45:31;;;;;;;9.70;3.13;;;;;;;;;;4955397;29;20297;-63
2023/03/22 00:47:56;;;;;;;7.43;3.08;;;;;;;;;;4956200;29;20678;-63
2023/03/22 00:50:21;;;;;;;7.90;3.15;;;;;;;;;;4955626;29;20218;-63
2023/03/22 00:52:47;;;;;;;7.93;2.97;;;;;;;;;;4955449;29;20218;-63
2023/03/22 00:55:12;;;;;;;10.77;3.30;;;;;;;;;;4955572;29;20602;-63
2023/03/22 00:57:37;;;;;;;12.80;3.28;;;;;;;;;;4955864;29;20213;-63
2023/03/22 01:00:09;;;;;;;7.93;2.88;;;;;;;;;;4954863;29;20210;-63
2023/03/22 01:02:35;;;;;;;8.75;2.78;;;;;;;;;;4955810;29;20358;-63
2023/03/22 01:05:01;;;;;;;6.57;2.83;;;;;;;;;;4937519;29;20293;-63
2023/03/22 01:07:26;;;;;;;9.27;3.40;;;;;;;;;;4955725;29;20273;-63
2023/03/22 01:09:52;;;;;;;9.35;3.35;;;;;;;;;;4938689;29;20237;-63
2023/03/22 01:12:17;;;;;;;10.68;3.65;;;;;;;;;;4956621;28;20225;-63
2023/03/22 01:14:42;;;;;;;9.88;3.70;;;;;;;;;;4955373;29;20226;-63
2023/03/22 01:17:08;;;;;;;9.07;3.75;;;;;;;;;;4955061;29;20218;-63
2023/03/22 01:19:33;;;;;;;6.78;3.40;;;;;;;;;;4954837;29;20214;-63
2023/03/22 01:21:58;;;;;;;9.02;3.75;;;;;;;;;;4955696;29;20646;-63
2023/03/22 01:24:24;;;;;;;10.90;4.10;;;;;;;;;;4955036;29;20213;-63
2023/03/22 01:26:49;;;;;;;8.82;4.00;;;;;;;;;;4962935;28;20216;-63
2023/03/22 01:29:14;;;;;;;10.25;3.45;;;;;;;;;;4973173;28;20741;-63
2023/03/22 01:31:40;;;;;;;9.50;3.80;;;;;;;;;;4955150;29;20233;-63
2023/03/22 01:34:05;;;;;;;11.65;4.50;;;;;;;;;;4953888;29;20234;-63
2023/03/22 01:36:30;;;;;;;9.02;3.72;;;;;;;;;;4955497;29;20214;-63
2023/03/22 01:38:55;;;;;;;12.43;4.07;;;;;;;;;;4961152;28;20288;-63
2023/03/22 01:41:21;;;;;;;11.10;4.15;;;;;;;;;;4973233;28;20213;-63
2023/03/22 01:44:05;;;;;;;9.48;4.07;;;;;;;;;;4974239;28;20220;-63
2023/03/22 01:46:31;;;;;;;8.05;3.63;;;;;;;;;;4973614;28;20217;-63
2023/03/22 01:48:57;;;;;;;13.50;4.43;;;;;;;;;;4973755;28;20206;-63
2023/03/22 01:51:23;;;;;;;8.65;4.03;;;;;;;;;;4956449;28;20206;-63
2023/03/22 01:53:49;;;;;;;9.52;4.00;;;;;;;;;;4971640;28;20280;-63
2023/03/22 01:56:15;;;;;;;11.23;3.75;;;;;;;;;;4954024;28;20265;-63
2023/03/22 01:58:40;;;;;;;9.23;3.80;;;;;;;;;;4972117;28;20302;-63
2023/03/22 02:01:06;;;;;;;9.10;4.07;;;;;;;;;;4954019;28;20221;-63
2023/03/22 02:03:50;;;;;;;8.98;4.03;;;;;;;;;;4971329;28;20220;-63
2023/03/22 02:06:17;;;;;;;10.57;4.00;;;;;;;;;;4971402;28;20687;-63
2023/03/22 02:08:42;;;;;;;9.35;3.97;;;;;;;;;;4971037;28;20229;-63
2023/03/22 02:11:09;;;;;;;9.93;3.67;;;;;;;;;;4962201;28;20206;-63
2023/03/22 02:13:38;;;;;;;7.43;3.55;;;;;;;;;;4935480;29;20229;-63
2023/03/22 02:16:09;;;;;;;11.90;4.40;;;;;;;;;;4951348;28;20218;-63
2023/03/22 02:18:37;;;;;;;12.32;4.40;;;;;;;;;;4935309;29;20289;-63
2023/03/22 02:21:04;;;;;;;10.48;4.28;;;;;;;;;;4951894;28;20218;-63
2023/03/22 02:23:34;;;;;;;10.50;4.47;;;;;;;;;;4951693;28;20273;-63
2023/03/22 02:26:02;;;;;;;9.20;3.72;;;;;;;;;;4935174;29;20757;-63
2023/03/22 02:28:30;;;;;;;12.43;4.22;;;;;;;;;;4952035;29;20536;-63
2023/03/22 02:31:01;;;;;;;9.95;5.10;;;;;;;;;;4947604;28;20229;-63
2023/03/22 02:33:26;;;;;;;11.52;5.40;;;;;;;;;;4938407;29;20581;-63
2023/03/22 02:35:52;;;;;;;9.45;5.30;;;;;;;;;;4951942;29;20206;-63
2023/03/22 02:38:22;;;;;;;16.20;7.07;;;;;;;;;;4952250;28;20563;-63
2023/03/22 02:40:47;;;;;;;13.38;6.82;;;;;;;;;;4954339;28;20214;-63
2023/03/22 02:43:19;;;;;;;11.00;6.82;;;;;;;;;;4970820;28;20213;-63
2023/03/22 02:46:02;;;;;;;11.63;7.57;;;;;;;;;;4953641;28;20209;-63
2023/03/22 02:48:29;;;;;;;12.40;7.55;;;;;;;;;;4971141;28;20712;-63
2023/03/22 02:50:55;;;;;;;13.93;8.38;;;;;;;;;;4953423;28;20221;-63
2023/03/22 02:53:27;;;;;;;14.88;8.70;;;;;;;;;;4953773;28;20231;-63
2023/03/22 02:55:54;;;;;;;13.30;8.05;;;;;;;;;;4971315;28;20221;-63
2023/03/22 02:58:22;;;;;;;16.42;9.13;;;;;;;;;;4952961;28;20220;-63
2023/03/22 03:00:49;;;;;;;13.43;9.07;;;;;;;;;;4953955;28;20252;-63
2023/03/22 03:03:17;;;;;;;13.77;8.57;;;;;;;;;;4970563;28;20245;-63
2023/03/22 03:05:43;;;;;;;15.45;12.50;;;;;;;;;;4953573;28;20226;-63
2023/03/22 03:08:09;;;;;;;15.15;9.73;;;;;;;;;;4970756;28;20210;-63
2023/03/22 03:10:34;;;;;;;13.25;9.77;;;;;;;;;;4966186;28;20237;-63
2023/03/22 03:12:59;;;;;;;14.63;10.10;;;;;;;;;;4934349;29;20210;-63
2023/03/22 03:15:25;;;;;;;16.23;9.82;;;;;;;;;;4951232;28;20232;-63
2023/03/22 03:17:53;;;;;;;17.58;9.85;;;;;;;;;;4951754;28;20266;-63
2023/03/22 03:20:21;;;;;;;12.82;9.55;;;;;;;;;;4950674;28;20214;-63
2023/03/22 03:23:04;;;;;;;14.27;9.15;;;;;;;;;;4934942;29;20226;-63
2023/03/22 03:25:33;;;;;;;14.80;9.50;;;;;;;;;;4951255;28;20226;-63
2023/03/22 03:28:16;;;;;;;14.43;9.77;;;;;;;;;;4951408;29;20293;-63
2023/03/22 03:30:44;;;;;;;16.48;9.32;;;;;;;;;;4962891;28;20641;-63
2023/03/22 03:33:12;;;;;;;12.15;9.13;;;;;;;;;;4952391;28;20352;-63
2023/03/22 03:35:39;;;;;;;14.30;8.95;;;;;;;;;;4953680;28;20304;-63
2023/03/22 03:38:07;;;;;;;15.07;8.55;;;;;;;;;;4953302;28;20280;-63
2023/03/22 03:40:33;;;;;;;9.27;6.38;;;;;;;;;;4934088;29;20330;-63
2023/03/22 03:43:00;;;;;;;17.48;9.18;;;;;;;;;;4934588;29;20306;-63
2023/03/22 03:45:25;;;;;;;9.70;8.80;;;;;;;;;;4934213;29;20222;-63
2023/03/22 03:47:55;;;;;;;11.23;8.27;;;;;;;;;;4950898;29;20207;-63
2023/03/22 03:50:21;;;;;;;14.60;8.52;;;;;;;;;;4950975;28;20702;-63
2023/03/22 03:52:46;;;;;;;14.93;8.93;;;;;;;;;;4937312;29;20294;-63
2023/03/22 03:55:11;;;;;;;13.13;8.15;;;;;;;;;;4953975;29;20237;-63
2023/03/22 03:57:37;;;;;;;11.85;8.40;;;;;;;;;;4946822;28;20215;-63
2023/03/22 04:00:03;;;;;;;15.65;8.77;;;;;;;;;;4944939;28;20233;-62
2023/03/22 04:02:28;;;;;;;13.23;8.00;;;;;;;;;;4945103;28;20777;-63
2023/03/22 04:04:53;;;;;;;12.77;9.00;;;;;;;;;;4959541;28;20226;-63
2023/03/22 04:07:19;;;;;;;10.32;8.25;;;;;;;;;;4944349;28;20333;-63
2023/03/22 04:09:44;;;;;;;10.93;7.43;;;;;;;;;;4944968;28;20214;-63
2023/03/22 04:12:09;;;;;;;13.00;8.27;;;;;;;;;;4941462;28;20240;-63
2023/03/22 04:14:35;;;;;;;12.98;7.80;;;;;;;;;;4937523;28;20278;-63
2023/03/22 04:17:00;;;;;;;11.80;7.57;;;;;;;;;;4936702;28;20289;-63
2023/03/22 04:19:26;;;;;;;12.80;7.28;;;;;;;;;;4941263;28;20289;-63
2023/03/22 04:21:51;;;;;;;11.15;6.82;;;;;;;;;;4944727;28;20545;-63
2023/03/22 04:24:17;;;;;;;12.13;6.55;;;;;;;;;;4943944;28;20219;-63
2023/03/22 04:26:42;;;;;;;12.38;6.65;;;;;;;;;;4939227;28;20350;-63
2023/03/22 04:29:08;;;;;;;13.55;7.35;;;;;;;;;;4943679;28;20219;-63
2023/03/22 04:31:35;;;;;;;12.23;5.95;;;;;;;;;;4946325;28;20230;-63
2023/03/22 04:34:04;;;;;;;13.18;5.90;;;;;;;;;;4927099;28;20234;-63
2023/03/22 04:36:30;;;;;;;11.25;5.93;;;;;;;;;;4937776;28;20249;-63
2023/03/22 04:38:55;;;;;;;12.77;6.10;;;;;;;;;;4951457;28;20203;-63
2023/03/22 04:41:20;;;;;;;8.73;5.47;;;;;;;;;;4939729;28;20281;-63
2023/03/22 04:43:49;;;;;;;9.10;5.57;;;;;;;;;;4964705;28;20214;-63
2023/03/22 04:46:15;;;;;;;9.23;5.45;;;;;;;;;;4965026;28;20388;-63
2023/03/22 04:48:40;;;;;;;14.75;5.80;;;;;;;;;;4964961;28;20765;-63
2023/03/22 04:51:06;;;;;;;10.05;5.20;;;;;;;;;;4946833;28;20749;-63
2023/03/22 04:53:32;;;;;;;9.63;5.68;;;;;;;;;;4965217;28;20812;-63
2023/03/22 04:55:57;;;;;;;10.70;5.57;;;;;;;;;;4964804;28;20241;-63
2023/03/22 04:58:23;;;;;;;9.65;5.30;;;;;;;;;;4956986;28;20264;-63
2023/03/22 05:00:49;;;;;;;9.80;5.40;;;;;;;;;;4956622;28;20213;-63
2023/03/22 05:03:18;;;;;;;8.48;5.03;;;;;;;;;;4955649;28;20744;-63
2023/03/22 05:05:51;;;;;;;10.77;5.43;;;;;;;;;;4950890;28;20218;-63
2023/03/22 05:08:16;;;;;;;9.55;5.05;;;;;;;;;;4947118;28;20214;-63
2023/03/22 05:10:42;;;;;;;11.20;5.55;;;;;;;;;;4959719;28;20215;-63
2023/03/22 05:13:07;;;;;;;9.27;4.82;;;;;;;;;;4944785;28;20218;-63
2023/03/22 05:15:33;;;;;;;8.73;4.95;;;;;;;;;;4928621;28;20289;-64
2023/03/22 05:17:58;;;;;;;11.23;4.90;;;;;;;;;;4945387;28;20758;-63
2023/03/22 05:20:23;;;;;;;12.80;5.20;;;;;;;;;;4939544;28;20394;-63
2023/03/22 05:22:49;;;;;;;11.05;5.18;;;;;;;;;;4937554;28;20306;-63
2023/03/22 05:25:14;;;;;;;8.85;4.72;;;;;;;;;;4955633;28;20508;-63
2023/03/22 05:27:39;;;;;;;9.23;5.03;;;;;;;;;;4947174;28;20741;-63
2023/03/22 05:30:06;;;;;;;9.88;4.75;;;;;;;;;;4945436;28;20222;-63
2023/03/22 05:32:31;;;;;;;11.18;5.00;;;;;;;;;;4944824;28;20214;-63
2023/03/22 05:34:56;;;;;;;11.15;4.90;;;;;;;;;;4945084;28;20230;-63
2023/03/22 05:37:21;;;;;;;11.05;4.85;;;;;;;;;;4945056;28;20293;-63
2023/03/22 05:39:47;;;;;;;9.88;4.28;;;;;;;;;;4944715;28;20214;-63
2023/03/22 05:42:12;;;;;;;10.80;4.55;;;;;;;;;;4960807;28;20233;-63
2023/03/22 05:44:37;;;;;;;10.60;4.68;;;;;;;;;;4956474;28;20214;-63
2023/03/22 05:47:03;;;;;;;8.48;4.47;;;;;;;;;;4939290;28;20218;-63
2023/03/22 05:49:29;;;;;;;7.60;4.30;;;;;;;;;;4939422;28;20222;-63
2023/03/22 05:51:55;;;;;;;9.60;4.57;;;;;;;;;;4944724;28;20544;-63
2023/03/22 05:54:20;;;;;;;8.95;4.47;;;;;;;;;;4944030;28;20233;-63
2023/03/22 05:56:46;;;;;;;8.45;4.30;;;;;;;;;;4956063;28;20218;-63
2023/03/22 05:59:11;;;;;;;8.57;4.07;;;;;;;;;;4936633;28;20831;-65
2023/03/22 06:01:38;;;;;;;8.05;3.88;;;;;;;;;;4936658;28;20717;-65
2023/03/22 06:04:03;;;;;;;9.18;4.40;;;;;;;;;;4939230;28;20214;-67
2023/03/22 06:06:28;;;;;;;10.33;5.00;;;;;;;;;;4943883;28;20911;-67
2023/03/22 06:08:54;;;;;;;8.35;4.18;;;;;;;;;;4944452;28;20203;-67
2023/03/22 06:11:20;;;;;;;11.57;4.20;;;;;;;;;;4944710;28;20226;-66
2023/03/22 06:13:45;;;;;;;7.85;3.63;;;;;;;;;;4944559;28;20366;-66
2023/03/22 06:16:10;;;;;;;7.10;3.60;;;;;;;;;;4943546;28;20305;-66
2023/03/22 06:18:35;;;;;;;9.18;3.88;;;;;;;;;;4944314;28;20210;-67
2023/03/22 06:21:01;;;;;;;8.50;3.53;;;;;;;;;;4936026;28;20240;-66
2023/03/22 06:23:26;;;;;;;8.77;3.70;;;;;;;;;;4936087;28;20222;-67
2023/03/22 06:25:51;;;;;;;11.05;3.67;;;;;;;;;;4933658;28;20211;-67
2023/03/22 06:28:17;;;;;;;8.27;3.40;;;;;;;;;;4943425;28;20274;-67
2023/03/22 06:30:42;;;;;;;8.32;3.45;;;;;;;;;;4943888;28;20721;-67
2023/03/22 06:33:07;;;;;;;10.52;3.28;;;;;;;;;;4944123;28;20218;-67
2023/03/22 06:35:33;;;;;;;12.15;3.70;;;;;;;;;;4925890;28;20227;-67
2023/03/22 06:37:58;;;;;;;7.82;3.40;;;;;;;;;;4942647;28;20791;-67
2023/03/22 06:40:24;;;;;;;9.70;3.55;;;;;;;;;;4944005;28;20214;-67
2023/03/22 06:42:49;;;;;;;9.63;3.50;;;;;;;;;;4956673;28;20694;-68
2023/03/22 06:45:15;;;;;;;9.48;3.33;;;;;;;;;;4937531;28;20306;-66
2023/03/22 06:47:41;;;;;;;10.38;3.13;;;;;;;;;;4954999;28;20268;-66
2023/03/22 06:50:06;;;;;;;7.95;3.20;;;;;;;;;;4960170;28;20616;-65
2023/03/22 06:52:32;;;;;;;11.82;2.88;;;;;;;;;;4963209;28;20805;-65
2023/03/22 06:54:57;;;;;;;7.43;2.70;;;;;;;;;;4963143;28;20700;-65
2023/03/22 06:57:22;;;;;;;8.90;3.20;;;;;;;;;;4967401;28;20221;-65
2023/03/22 06:59:47;;;;;;;13.38;2.75;;;;;;;;;;4955271;28;20665;-65
2023/03/22 07:02:13;;;;;;;9.88;3.10;;;;;;;;;;4953525;29;20214;-66
2023/03/22 07:04:38;;;;;;;8.60;2.90;;;;;;;;;;4957813;28;20426;-64
2023/03/22 07:07:03;;;;;;;8.85;2.95;;;;;;;;;;4972941;28;20298;-65
2023/03/22 07:09:29;;;;;;;11.20;3.63;;;;;;;;;;4955610;28;20222;-65
2023/03/22 07:11:54;;;;;;;9.20;3.28;;;;;;;;;;4959537;28;20678;-65
2023/03/22 07:14:20;;;;;;;9.02;3.08;;;;;;;;;;4953446;29;20235;-65
2023/03/22 07:16:45;;;;;;;9.90;3.05;;;;;;;;;;4953751;29;20290;-65
2023/03/22 07:19:11;;;;;;;7.68;2.90;;;;;;;;;;4953047;29;20217;-64
2023/03/22 07:21:36;;;;;;;13.95;3.58;;;;;;;;;;4954062;29;20577;-65
2023/03/22 07:24:02;;;;;;;10.50;3.13;;;;;;;;;;4953121;29;20210;-64
2023/03/22 07:26:29;;;;;;;10.52;3.28;;;;;;;;;;4954256;28;20563;-64
2023/03/22 07:28:54;;;;;;;13.15;3.38;;;;;;;;;;4957596;29;20297;-65
2023/03/22 07:31:20;;;;;;;9.52;3.28;;;;;;;;;;4973658;28;20322;-65
2023/03/22 07:33:45;;;;;;;8.10;3.47;;;;;;;;;;4976272;28;20585;-65
2023/03/22 07:36:11;;;;;;;6.60;3.13;;;;;;;;;;4959490;28;20236;-64
2023/03/22 07:38:37;;;;;;;11.55;3.72;;;;;;;;;;4972910;28;20214;-66
2023/03/22 07:41:02;;;;;;;10.80;3.58;;;;;;;;;;4955981;29;20218;-65
2023/03/22 07:43:27;;;;;;;9.48;3.40;;;;;;;;;;4963058;28;20205;-65
2023/03/22 07:45:52;;;;;;;8.73;3.22;;;;;;;;;;4976194;28;20224;-66
2023/03/22 07:48:18;;;;;;;9.02;3.17;;;;;;;;;;4960943;28;20222;-66
2023/03/22 07:50:43;;;;;;;10.60;3.45;;;;;;;;;;4957343;29;20270;-66
2023/03/22 07:53:09;;;;;;;10.32;3.35;;;;;;;;;;4955015;28;20215;-65
2023/03/22 07:55:34;;;;;;;11.18;3.63;;;;;;;;;;4956719;29;20675;-66
2023/03/22 07:58:00;;;;;;;7.47;3.00;;;;;;;;;;4966317;28;20300;-65
2023/03/22 08:00:25;;;;;;;9.30;3.35;;;;;;;;;;4964686;28;20202;-65
2023/03/22 08:02:51;;;;;;;12.68;3.45;;;;;;;;;;4971073;28;20217;-65
2023/03/22 08:05:16;;;;;;;9.70;3.40;;;;;;;;;;4970598;28;20245;-66
2023/03/22 08:07:42;;;;;;;8.77;4.07;;;;;;;;;;4956505;29;20219;-66
2023/03/22 08:10:07;;;;;;;11.65;3.80;;;;;;;;;;4963494;28;20212;-65
2023/03/22 08:12:32;;;;;;;11.43;3.67;;;;;;;;;;4973572;28;20218;-66
2023/03/22 08:14:58;;;;;;;9.85;3.30;;;;;;;;;;4973321;28;20661;-66
2023/03/22 08:17:24;;;;;;;9.25;3.45;;;;;;;;;;4973422;28;20228;-66
2023/03/22 08:19:50;;;;;;;11.18;3.35;;;;;;;;;;4973623;28;20697;-65
2023/03/22 08:22:15;;;;;;;9.57;3.58;;;;;;;;;;4955587;28;20261;-65
2023/03/22 08:24:41;;;;;;;11.48;3.70;;;;;;;;;;4973575;28;20216;-66
2023/03/22 08:27:06;;;;;;;9.07;3.33;;;;;;;;;;4962178;28;20222;-65
2023/03/22 08:29:31;;;;;;;13.70;4.18;;;;;;;;;;4953722;29;20301;-66
2023/03/22 08:32:00;;;;;;;10.88;3.30;;;;;;;;;;4954099;29;20317;-65
2023/03/22 08:34:26;;;;;;;12.80;3.45;;;;;;;;;;4953845;29;20218;-65
2023/03/22 08:36:52;;;;;;;10.95;3.67;;;;;;;;;;4953559;28;20954;-65
2023/03/22 08:39:17;;;;;;;13.63;3.90;;;;;;;;;;4953386;28;20226;-66
2023/03/22 08:41:42;;;;;;;12.05;4.05;;;;;;;;;;4953737;28;20214;-66
2023/03/22 08:44:08;;;;;;;11.23;3.83;;;;;;;;;;4953181;28;20211;-65
2023/03/22 08:46:34;;;;;;;11.07;3.83;;;;;;;;;;4953834;28;20301;-65
2023/03/22 08:49:01;;;;;;;13.80;4.40;;;;;;;;;;4957267;28;20284;-68
2023/03/22 08:51:26;;;;;;;9.65;3.80;;;;;;;;;;4972373;28;20222;-67
2023/03/22 08:53:51;;;;;;;12.23;4.28;;;;;;;;;;4973317;28;20225;-67
2023/03/22 08:56:18;;;;;;;13.25;4.35;;;;;;;;;;4971701;28;20305;-67
2023/03/22 08:58:45;;;;;;;12.60;4.72;;;;;;;;;;4956393;28;20218;-67
2023/03/22 09:01:14;;;;;;;10.82;4.00;;;;;;;;;;4972722;28;20558;-67
2023/03/22 09:03:39;;;;;;;12.27;4.28;;;;;;;;;;4955408;28;20205;-67
2023/03/22 09:06:05;;;;;;;14.82;4.47;;;;;;;;;;4972683;28;20226;-67
2023/03/22 09:08:31;;;;;;;14.40;4.43;;;;;;;;;;4971013;28;20218;-67
2023/03/22 09:10:56;;;;;;;10.07;4.00;;;;;;;;;;4972079;28;20206;-67
2023/03/22 09:13:21;;;;;;;12.10;4.00;;;;;;;;;;4972464;28;20749;-67
2023/03/22 09:15:47;;;;;;;14.63;3.80;;;;;;;;;;4972554;28;20218;-67
2023/03/22 09:18:12;;;;;;;9.30;3.70;;;;;;;;;;4971993;28;20749;-67
2023/03/22 09:20:37;;;;;;;11.82;3.70;;;;;;;;;;4955443;28;20309;-67
2023/03/22 09:23:03;;;;;;;9.60;3.40;;;;;;;;;;4972294;28;20567;-67
2023/03/22 09:25:28;;;;;;;10.02;3.55;;;;;;;;;;4971896;28;20210;-67
2023/03/22 09:27:53;;;;;;;12.23;3.92;;;;;;;;;;4955800;28;20569;-67
2023/03/22 09:30:19;;;;;;;14.23;3.88;;;;;;;;;;4961055;28;20279;-67
2023/03/22 09:32:44;;;;;;;13.20;4.13;;;;;;;;;;4972143;28;20576;-67
2023/03/22 09:35:09;;;;;;;10.15;3.03;;;;;;;;;;4972095;28;20320;-66
2023/03/22 09:37:35;;;;;;;11.82;3.22;;;;;;;;;;4972485;28;20214;-67
2023/03/22 09:40:00;;;;;;;8.82;2.67;;;;;;;;;;4956759;28;20218;-67
2023/03/22 09:42:28;;;;;;;9.27;3.10;;;;;;;;;;4952714;29;20211;-67
2023/03/22 09:44:54;;;;;;;9.05;2.47;;;;;;;;;;4935665;29;20206;-67
2023/03/22 09:47:20;;;;;;;9.70;2.95;;;;;;;;;;4935183;29;20269;-67
2023/03/22 09:49:47;;;;;;;13.48;2.58;;;;;;;;;;4935242;29;20583;-67
2023/03/22 09:52:12;;;;;;;10.93;3.00;;;;;;;;;;4935178;29;20210;-67
2023/03/22 09:54:38;;;;;;;12.02;3.13;;;;;;;;;;4935079;29;20234;-67
2023/03/22 09:57:10;;;;;;;8.88;2.60;;;;;;;;;;4952342;29;20221;-66
2023/03/22 09:59:42;;;;;;;10.20;3.15;;;;;;;;;;4934938;29;20320;-67
2023/03/22 10:02:22;;;;;;;10.15;2.60;;;;;;;;;;4952478;29;20244;-66
2023/03/22 10:04:50;;;;;;;8.23;2.08;;;;;;;;;;4952526;29;20221;-67
2023/03/22 10:07:27;;;;;;;12.13;2.85;;;;;;;;;;4934687;29;20224;-67
2023/03/22 10:09:57;;;;;;;11.18;2.65;;;;;;;;;;4953989;28;20293;-67
2023/03/22 10:12:24;;;;;;;10.25;3.25;;;;;;;;;;4951948;29;20241;-67
2023/03/22 10:14:50;;;;;;;13.57;2.90;;;;;;;;;;4951739;29;20582;-67
2023/03/22 10:17:16;;;;;;;9.82;2.38;;;;;;;;;;4935010;29;20270;-67
2023/03/22 10:19:48;;;;;;;12.60;5.13;;;;;;;;;;4952498;29;20207;-67
2023/03/22 10:22:14;;;;;;;12.95;4.35;;;;;;;;;;4951385;29;20369;-66
2023/03/22 10:24:39;;;;;;;20.85;9.02;;;;;;;;;;4935169;29;20297;-67
2023/03/22 10:27:11;;;;;;;11.30;2.70;;;;;;;;;;4944707;28;20214;-66
2023/03/22 10:29:37;;;;;;;12.10;3.58;;;;;;;;;;4950719;28;20307;-67
2023/03/22 10:32:12;;;;;;;13.88;2.90;;;;;;;;;;4934587;29;20362;-66
2023/03/22 10:34:37;;;;;;;10.85;2.75;;;;;;;;;;4934984;29;20313;-67
2023/03/22 10:37:03;;;;;;;8.48;2.47;;;;;;;;;;4951569;29;20381;-66
2023/03/22 10:39:29;;;;;;;9.60;1.98;;;;;;;;;;4962072;28;20210;-66
2023/03/22 10:41:54;;;;;;;11.00;2.40;;;;;;;;;;4970858;28;20209;-66
2023/03/22 10:44:20;;;;;;;8.82;2.30;;;;;;;;;;4971076;28;21819;-66
2023/03/22 10:46:45;;;;;;;9.02;2.42;;;;;;;;;;4954198;28;20261;-66
2023/03/22 10:49:12;;;;;;;10.88;2.53;;;;;;;;;;4953213;28;20214;-66
2023/03/22 10:51:39;;;;;;;10.55;2.50;;;;;;;;;;4953933;28;20202;-66
2023/03/22 10:54:05;;;;;;;10.82;2.38;;;;;;;;;;4953432;28;20240;-67
2023/03/22 10:56:30;;;;;;;9.63;2.03;;;;;;;;;;4970712;28;20221;-67
2023/03/22 10:58:56;;;;;;;10.43;2.58;;;;;;;;;;4971363;28;20233;-67
2023/03/22 11:01:28;;;;;;;9.07;2.13;;;;;;;;;;4971556;28;20684;-67
2023/03/22 11:03:58;;;;;;;7.65;2.30;;;;;;;;;;4957519;28;20631;-67
2023/03/22 11:06:28;;;;;;;6.50;2.20;;;;;;;;;;4974750;28;20213;-67
2023/03/22 11:09:12;;;;;;;9.35;2.72;;;;;;;;;;4965506;28;20285;-67
2023/03/22 11:11:39;;;;;;;9.60;2.45;;;;;;;;;;4954978;28;20206;-67
2023/03/22 11:14:12;;;;;;;7.50;2.13;;;;;;;;;;4955152;28;20222;-67
2023/03/22 11:16:56;;;;;;;9.10;2.35;;;;;;;;;;4938316;29;20210;-67
2023/03/22 11:19:23;;;;;;;7.68;2.10;;;;;;;;;;4955391;28;20218;-67
2023/03/22 11:21:48;;;;;;;9.88;2.15;;;;;;;;;;4938441;29;20254;-67
2023/03/22 11:24:14;;;;;;;11.25;2.78;;;;;;;;;;4937512;28;20674;-67
2023/03/22 11:26:40;;;;;;;8.88;2.30;;;;;;;;;;4955483;28;20261;-67
2023/03/22 11:29:13;;;;;;;11.10;3.80;;;;;;;;;;4955533;28;20224;-66
2023/03/22 11:31:49;;;;;;;8.80;2.28;;;;;;;;;;4937339;29;20230;-67
2023/03/22 11:34:15;;;;;;;10.45;2.90;;;;;;;;;;4954935;29;20313;-67
2023/03/22 11:36:42;;;;;;;8.48;2.45;;;;;;;;;;4955244;29;20214;-67
2023/03/22 11:39:07;;;;;;;7.68;2.17;;;;;;;;;;4962078;28;20222;-66
2023/03/22 11:41:34;;;;;;;9.98;2.70;;;;;;;;;;4974504;28;20224;-67
2023/03/22 11:44:00;;;;;;;10.15;2.42;;;;;;;;;;4957104;28;20260;-67
2023/03/22 11:46:26;;;;;;;10.60;2.33;;;;;;;;;;4973630;28;20579;-67
2023/03/22 11:48:51;;;;;;;10.30;2.50;;;;;;;;;;4974503;28;20217;-67
2023/03/22 11:51:17;;;;;;;8.25;2.40;;;;;;;;;;4956311;28;20226;-67
2023/03/22 11:53:44;;;;;;;8.30;1.75;;;;;;;;;;4973842;28;20229;-67
2023/03/22 11:56:10;;;;;;;8.45;1.98;;;;;;;;;;4973781;28;20312;-67
2023/03/22 11:58:36;;;;;;;8.88;2.08;;;;;;;;;;4956929;28;20252;-67
2023/03/22 12:01:01;;;;;;;8.63;2.25;;;;;;;;;;4972981;28;20221;-67
2023/03/22 12:03:28;;;;;;;10.98;3.13;;;;;;;;;;4957142;28;20214;-67
2023/03/22 12:05:53;;;;;;;9.63;2.97;;;;;;;;;;4956564;28;20280;-67
2023/03/22 12:08:22;;;;;;;7.40;2.63;;;;;;;;;;4950942;28;20618;-67
2023/03/22 12:10:48;;;;;;;9.30;2.42;;;;;;;;;;4937537;29;20644;-67
2023/03/22 12:13:22;;;;;;;8.93;2.08;;;;;;;;;;4936030;28;20289;-67
2023/03/22 12:15:47;;;;;;;8.75;2.20;;;;;;;;;;4954122;28;20237;-67
2023/03/22 12:18:15;;;;;;;10.55;2.60;;;;;;;;;;4954048;29;20230;-63
2023/03/22 12:20:41;;;;;;;10.48;2.30;;;;;;;;;;4936857;29;20618;-63
2023/03/22 12:23:14;;;;;;;10.07;2.80;;;;;;;;;;4938144;29;20225;-63
2023/03/22 12:25:39;;;;;;;10.70;2.85;;;;;;;;;;4937430;29;20231;-63
2023/03/22 12:28:06;;;;;;;8.73;2.30;;;;;;;;;;4954387;28;20772;-63
2023/03/22 12:30:32;;;;;;;7.38;2.20;;;;;;;;;;4945938;29;20225;-63
2023/03/22 12:33:02;;;;;;;8.77;2.15;;;;;;;;;;4954277;29;20630;-63
2023/03/22 12:35:29;;;;;;;7.60;2.33;;;;;;;;;;4940609;28;20524;-63
2023/03/22 12:37:55;;;;;;;6.97;2.15;;;;;;;;;;4940061;29;20516;-63
2023/03/22 12:40:31;;;;;;;8.80;2.08;;;;;;;;;;4951207;28;20226;-63
2023/03/22 12:43:12;;;;;;;7.20;2.08;;;;;;;;;;4967627;28;20566;-63
2023/03/22 12:45:39;;;;;;;10.48;2.10;;;;;;;;;;4973081;28;20217;-63
2023/03/22 12:48:05;;;;;;;5.43;1.73;;;;;;;;;;4955388;28;20210;-63
2023/03/22 12:50:41;;;;;;;7.28;2.20;;;;;;;;;;4955634;28;20226;-63
2023/03/22 12:53:09;;;;;;;7.07;2.20;;;;;;;;;;4955407;28;20227;-63
2023/03/22 12:55:34;;;;;;;10.00;2.20;;;;;;;;;;4955650;28;20230;-63
2023/03/22 12:58:00;;;;;;;8.88;2.65;;;;;;;;;;4973290;28;20209;-63
2023/03/22 13:00:27;;;;;;;7.22;2.15;;;;;;;;;;4972637;28;20202;-63
2023/03/22 13:02:56;;;;;;;6.30;1.88;;;;;;;;;;4972551;28;20248;-62
2023/03/22 13:05:21;;;;;;;6.75;2.10;;;;;;;;;;4955524;28;20244;-63
2023/03/22 13:07:47;;;;;;;5.60;1.95;;;;;;;;;;4954852;28;20218;-62
2023/03/22 13:10:28;;;;;;;6.95;2.33;;;;;;;;;;4970944;28;20214;-63
2023/03/22 13:13:11;;;;;;;5.68;2.10;;;;;;;;;;4972983;28;20237;-63
2023/03/22 13:15:37;;;;;;;6.28;1.90;;;;;;;;;;4972225;28;20236;-63
2023/03/22 13:18:03;;;;;;;9.13;2.25;;;;;;;;;;4971828;28;20218;-62
2023/03/22 13:20:29;;;;;;;4.18;1.80;;;;;;;;;;4955767;28;20260;-63
2023/03/22 13:22:55;;;;;;;6.10;2.15;;;;;;;;;;4972501;28;20579;-63
2023/03/22 13:25:27;;;;;;;7.90;1.90;;;;;;;;;;4970954;28;20300;-63
2023/03/22 13:27:54;;;;;;;7.50;2.00;;;;;;;;;;4955763;28;20210;-63
2023/03/22 13:30:20;;;;;;;5.32;1.83;;;;;;;;;;4955528;28;20576;-63
2023/03/22 13:32:49;;;;;;;7.32;2.20;;;;;;;;;;4960576;28;20226;-63
2023/03/22 13:35:22;;;;;;;7.97;2.20;;;;;;;;;;4962328;28;20309;-64
2023/03/22 13:37:49;;;;;;;7.60;2.10;;;;;;;;;;4944569;28;20242;-63
2023/03/22 13:40:33;;;;;;;7.82;1.85;;;;;;;;;;4945078;28;20297;-63
2023/03/22 13:43:09;;;;;;;6.40;2.00;;;;;;;;;;4964404;28;20217;-63
2023/03/22 13:45:34;;;;;;;6.47;2.30;;;;;;;;;;4960557;28;20195;-63
2023/03/22 13:48:03;;;;;;;5.05;1.90;;;;;;;;;;4963714;28;20344;-63
2023/03/22 13:50:28;;;;;;;7.03;1.80;;;;;;;;;;4971908;28;20272;-63
2023/03/22 13:52:56;;;;;;;6.00;2.00;;;;;;;;;;4971574;28;20222;-63
2023/03/22 13:55:40;;;;;;;6.25;1.98;;;;;;;;;;4954545;28;20773;-63
2023/03/22 13:58:08;;;;;;;6.70;2.13;;;;;;;;;;4971539;28;20323;-62
2023/03/22 14:00:34;;;;;;;6.90;2.13;;;;;;;;;;4954305;28;20210;-62
2023/03/22 14:03:00;;;;;;;7.55;2.38;;;;;;;;;;4954473;28;20588;-62
2023/03/22 14:05:27;;;;;;;9.70;2.20;;;;;;;;;;4954492;28;20489;-62
2023/03/22 14:07:55;;;;;;;7.97;2.50;;;;;;;;;;4969945;28;20678;-62
2023/03/22 14:10:20;;;;;;;7.78;2.45;;;;;;;;;;4935010;29;20226;-62
2023/03/22 14:12:46;;;;;;;8.98;2.83;;;;;;;;;;4952181;29;20210;-63
2023/03/22 14:15:13;;;;;;;4.85;2.03;;;;;;;;;;4952166;29;20695;-62
2023/03/22 14:17:45;;;;;;;6.32;2.38;;;;;;;;;;4935071;29;20289;-63
2023/03/22 14:20:11;;;;;;;8.40;2.35;;;;;;;;;;4934560;29;20536;-62
2023/03/22 14:22:37;;;;;;;6.53;2.35;;;;;;;;;;4935238;29;20198;-63
2023/03/22 14:25:03;;;;;;;7.72;2.22;;;;;;;;;;4951904;29;20210;-62
2023/03/22 14:27:30;;;;;;;8.95;2.50;;;;;;;;;;4947684;28;20244;-62
2023/03/22 14:29:55;;;;;;;9.85;2.55;;;;;;;;;;4948598;29;20221;-62
2023/03/22 14:32:22;;;;;;;8.05;2.70;;;;;;;;;;4951667;29;20218;-63
2023/03/22 14:34:51;;;;;;;8.75;2.72;;;;;;;;;;4939671;28;20225;-64